Winamac, IN (46996)

7:36 AM EDT on July 29, 2014 (GMT -0400)
East of Town (KINNORTH11) Elev 700 ft | 41.24 °N, 86.72 °W | Change Station

Current weather conditions updated 1 minute ago

Clear
Clear
46.9 °F
Feels Like 47 °F
N
0.0
Wind Variable Wind from NW
Gusts 0.0 mph

Today is forecast to be Much Warmer than yesterday. Partly cloudy with a stray thunderstorm.

Today
High -- | Low -- °F
--% Chance of Precip.
Yesterday
High -- | Low -- °F
Precip. -- in
6:39 AM 9:05 PM
Waxing Crescent, 6% visible
Pressure 30.04 in
Visibility 10.0 miles
Clouds Clear
Windchill 47 °F
Dew Point 46 °F
Humidity 97%
Rainfall 0.00 in
Snow Depth Not available.
UV 0 out of 12
Pollen 7.20 out of 12
Air Quality Not available.
Flu Activity Not available.
METAR KOXI 291115Z AUTO 00000KT 10SM CLR 08/07 A3004 RMK AO1 T00790069

More Conditions Fewer Conditions

Pressure 30.04 in
Visibility 10.0 miles
Clouds Clear
Windchill 47 °F
Dew Point 46 °F
Humidity 97%
Rainfall 0.00 in
Snow Depth Not available.
UV 0 out of 12
Pollen 7.20 out of 12
Air Quality Not available.
Flu Activity Not available.
METAR KOXI 291115Z AUTO 00000KT 10SM CLR 08/07 A3004 RMK AO1 T00790069

More Conditions Fewer Conditions

10-Day Weather Forecast

Almanac

Astronomy

Jul. 29, 2014 Rise Set
Actual Time 6:39 AM EDT 9:05 PM EDT
Civil Twilight 6:08 AM EDT 9:37 PM EDT
Nautical Twilight 5:29 AM EDT 10:15 PM EDT
Astronomical Twilight 4:46 AM EDT 10:58 PM EDT
Moon 9:17 AM EDT 10:16 PM EDT
Length of Visible Light 15h 28m
Length of Day
14h 26m
Tomorrow will be 1m 59s shorter.
Waxing Crescent, 6% of the Moon is Illuminated
Today
Waxing Crescent
Aug 3
First Quarter
Aug 10
Full
Aug 17
Last Quarter
Aug 25
New

Today's Extremes

State Highs State Lows

Community

WunderPhotos

Upload Photos

1,738,687 photos uploaded!

WunderBlogs® & News

By Dr. Jeff Masters
Director of Meteorology, Weather Underground
By Kari Strenfel
Meteorologist, Weather Underground
By Christopher C. Burt
Weather Historian, Weather Underground
July 29, 2014
July 29, 2014
July 29, 2014

Nearby

Snow Depth

Station Depth Elevation
No new snow has been reported.

Earthquake Activity

City Distance Mag. Time & Date
No recent earthquake activity has been reported nearby.
Minimum magnitude displayed is 2.5.

Coastal Water Temperatures

Place Temperature
No Stations Reporting

Nearby Weather Stations

Station Location Temp. Windchill Dew Point Humidity Wind Precip. Elev Updated Type
East of Town, North Judson, IN 46.9 °F 47 °F 46 °F 97% NW  at  0.0 mph 0.00 in / hr 700 ft 6:35 AM CDT Normal
Leroy's BarnYard, Kewanna, IN 50.6 °F - 48 °F 89% NNW  at  0.0 mph 0.00 in / hr 758 ft 7:34 AM EDT Normal
400 west, Rochester, IN 48.7 °F 49 °F 48 °F 99% SSE  at  0.0 mph 0.00 in / hr 745 ft 7:36 AM EDT Rapid Fire
Bluewater Drive, Monticello, IN 53.6 °F - 53 °F 98% South  at  0.0 mph - / hr 623 ft 7:22 AM EDT Normal
4th Street, Rochester, IN 51.6 °F - 49 °F 92% North  at  0.0 mph 0.00 in / hr 781 ft 7:33 AM EDT Normal

Show More Stations Show Fewer Stations